createdAt,value
2022-11-07T00:00:50.101Z,50.67
2022-11-07T00:03:20.157Z,50.00
2022-11-07T00:05:50.231Z,46.00
2022-11-07T00:08:19.764Z,42.67
2022-11-07T00:10:49.150Z,45.00
2022-11-07T00:13:17.830Z,39.00
2022-11-07T00:15:47.333Z,43.67
2022-11-07T00:18:18.160Z,45.00
2022-11-07T00:20:47.672Z,52.33
2022-11-07T00:23:17.354Z,51.33
2022-11-07T00:25:46.836Z,52.67
2022-11-07T00:28:16.338Z,48.33
2022-11-07T00:30:45.881Z,48.33
2022-11-07T00:33:14.825Z,41.50
2022-11-07T00:35:47.982Z,36.33
2022-11-07T00:38:18.421Z,31.00
2022-11-07T00:41:06.717Z,36.00
2022-11-07T00:43:36.330Z,38.00
2022-11-07T00:46:08.699Z,38.00
2022-11-07T00:48:38.091Z,38.00
2022-11-07T00:51:22.168Z,37.67
2022-11-07T00:53:52.795Z,41.67
2022-11-07T00:56:25.765Z,40.00
2022-11-07T00:59:00.831Z,40.33
2022-11-07T01:01:34.546Z,43.00
2022-11-07T01:04:23.878Z,48.33
2022-11-07T01:06:53.372Z,48.00
2022-11-07T01:09:23.008Z,49.67
2022-11-07T01:11:55.786Z,49.67
2022-11-07T01:14:24.864Z,53.00
2022-11-07T01:16:57.374Z,51.67
2022-11-07T01:19:27.357Z,54.33
2022-11-07T01:21:57.259Z,55.00
2022-11-07T01:24:27.061Z,52.00
2022-11-07T01:26:57.416Z,56.67
2022-11-07T01:29:27.122Z,53.00
2022-11-07T01:31:56.685Z,51.00
2022-11-07T01:34:27.433Z,51.00
2022-11-07T01:36:57.017Z,45.33
2022-11-07T01:39:25.822Z,42.50
2022-11-07T01:41:55.339Z,51.00
2022-11-07T01:44:24.875Z,53.00
2022-11-07T01:47:01.509Z,56.33
2022-11-07T01:49:38.629Z,61.00
2022-11-07T01:52:36.262Z,68.67
2022-11-07T01:55:31.155Z,65.33
2022-11-07T01:58:07.170Z,61.00
2022-11-07T02:00:37.967Z,61.00
2022-11-07T02:03:15.236Z,60.00
2022-11-07T02:05:57.874Z,57.33
2022-11-07T02:08:31.071Z,59.33
2022-11-07T02:11:03.006Z,54.33
2022-11-07T02:13:33.690Z,56.67
2022-11-07T02:16:05.505Z,51.00
2022-11-07T02:18:38.318Z,50.67
2022-11-07T02:21:41.016Z,49.67
2022-11-07T02:24:24.914Z,50.67
2022-11-07T02:26:58.264Z,46.50
2022-11-07T02:29:31.096Z,45.00
2022-11-07T02:32:11.514Z,42.00
2022-11-07T02:34:41.211Z,39.33
2022-11-07T02:37:38.955Z,38.67
2022-11-07T02:40:11.370Z,35.00
2022-11-07T02:42:46.083Z,37.67
2022-11-07T02:45:24.499Z,40.00
2022-11-07T02:47:54.042Z,35.67
2022-11-07T02:50:24.451Z,43.67
2022-11-07T02:52:54.042Z,44.00
2022-11-07T02:55:22.928Z,42.50
2022-11-07T02:57:51.644Z,40.50
2022-11-07T03:00:19.422Z,41.00
2022-11-07T03:02:49.247Z,46.00
2022-11-07T03:05:20.929Z,46.00
2022-11-07T03:07:51.167Z,47.67
2022-11-07T03:10:20.709Z,48.00
2022-11-07T03:12:50.354Z,50.00
2022-11-07T03:15:19.978Z,46.67
2022-11-07T03:17:49.419Z,49.50
2022-11-07T03:20:18.971Z,47.67
2022-11-07T03:22:48.506Z,49.67
2022-11-07T03:25:18.207Z,46.00
2022-11-07T03:27:50.269Z,44.67
2022-11-07T03:30:19.952Z,48.00
2022-11-07T03:32:55.115Z,47.00
2022-11-07T03:35:24.674Z,49.67
2022-11-07T03:37:54.743Z,49.67
2022-11-07T03:40:24.256Z,54.00
2022-11-07T03:42:53.784Z,54.67
2022-11-07T03:45:23.303Z,48.67
2022-11-07T03:47:52.968Z,48.00
2022-11-07T03:50:23.015Z,71.00
2022-11-07T03:52:52.531Z,56.67
2022-11-07T03:55:22.082Z,55.00
2022-11-07T03:57:51.635Z,59.67
2022-11-07T04:00:21.270Z,62.00
2022-11-07T04:02:50.935Z,54.00
2022-11-07T04:05:20.537Z,49.00
2022-11-07T04:07:49.935Z,44.00
2022-11-07T04:10:19.432Z,49.67
2022-11-07T04:13:07.096Z,51.33
2022-11-07T04:15:57.585Z,44.33
2022-11-07T04:18:27.069Z,43.67
2022-11-07T04:20:56.562Z,45.33
2022-11-07T04:23:26.042Z,52.33
2022-11-07T04:26:14.244Z,65.67
2022-11-07T04:28:43.734Z,63.00
2022-11-07T04:31:13.175Z,61.33
2022-11-07T04:33:42.641Z,48.67
2022-11-07T04:36:12.139Z,46.00
2022-11-07T04:38:41.633Z,45.00
2022-11-07T04:41:23.978Z,44.00
2022-11-07T04:43:53.395Z,43.00
2022-11-07T04:46:23.721Z,44.33
2022-11-07T04:48:53.128Z,39.67
2022-11-07T04:51:24.576Z,41.00
2022-11-07T04:53:53.994Z,39.00
2022-11-07T04:56:23.405Z,39.33
2022-11-07T04:58:52.047Z,39.50
2022-11-07T05:01:21.464Z,46.67
2022-11-07T05:03:50.863Z,47.00
2022-11-07T05:06:20.721Z,48.00
2022-11-07T05:08:50.771Z,50.33
2022-11-07T05:11:19.397Z,45.00
2022-11-07T05:13:48.813Z,42.33
2022-11-07T05:16:18.344Z,44.67
2022-11-07T05:18:47.811Z,46.00
2022-11-07T05:21:17.266Z,46.00
2022-11-07T05:23:46.728Z,50.67
2022-11-07T05:26:16.255Z,44.00
2022-11-07T05:28:45.065Z,46.00
2022-11-07T05:31:18.185Z,47.00
2022-11-07T05:33:46.904Z,42.00
2022-11-07T05:36:21.006Z,40.67
2022-11-07T05:38:53.151Z,40.00
2022-11-07T05:41:23.234Z,42.00
2022-11-07T05:43:52.662Z,44.00
2022-11-07T05:46:22.243Z,42.00
2022-11-07T05:48:55.365Z,53.33
2022-11-07T05:51:27.681Z,52.67
2022-11-07T05:53:57.252Z,52.33
2022-11-07T05:56:26.908Z,52.00
2022-11-07T05:58:56.422Z,50.00
2022-11-07T06:01:26.025Z,49.33
2022-11-07T06:03:55.518Z,47.00
2022-11-07T06:06:25.016Z,44.67
2022-11-07T06:08:54.455Z,45.00
2022-11-07T06:11:23.226Z,41.00
2022-11-07T06:13:54.998Z,43.00
2022-11-07T06:16:24.600Z,44.00
2022-11-07T06:18:54.258Z,42.67
2022-11-07T06:21:23.715Z,40.00
2022-11-07T06:23:52.382Z,37.00
2022-11-07T06:26:21.155Z,38.50
2022-11-07T06:28:50.834Z,39.67
2022-11-07T06:31:20.596Z,43.00
2022-11-07T06:33:51.803Z,42.33
2022-11-07T06:36:20.495Z,43.67
2022-11-07T06:38:53.614Z,35.00
2022-11-07T06:41:23.091Z,42.67
2022-11-07T06:43:52.600Z,37.00
2022-11-07T06:46:23.376Z,40.67
2022-11-07T06:48:52.839Z,36.33
2022-11-07T06:51:22.255Z,38.00
2022-11-07T06:53:51.807Z,44.00
2022-11-07T06:56:20.441Z,42.00
2022-11-07T06:58:49.933Z,42.33
2022-11-07T07:01:19.690Z,43.67
2022-11-07T07:03:49.141Z,42.33
2022-11-07T07:06:18.780Z,44.33
2022-11-07T07:08:49.399Z,44.67
2022-11-07T07:11:18.961Z,45.00
2022-11-07T07:13:48.513Z,45.67
2022-11-07T07:16:18.029Z,44.67
2022-11-07T07:18:47.447Z,44.67
2022-11-07T07:21:16.883Z,39.00
2022-11-07T07:23:45.498Z,44.67
2022-11-07T07:26:17.117Z,41.00
2022-11-07T07:28:46.607Z,44.33
2022-11-07T07:31:15.946Z,44.67
2022-11-07T07:33:48.198Z,51.00
2022-11-07T07:36:20.982Z,48.33
2022-11-07T07:38:51.775Z,43.67
2022-11-07T07:41:21.439Z,45.00
2022-11-07T07:43:50.932Z,46.00
2022-11-07T07:46:24.076Z,43.00
2022-11-07T07:48:53.851Z,43.33
2022-11-07T07:51:23.391Z,43.67
2022-11-07T07:53:54.200Z,44.00
2022-11-07T07:56:23.797Z,43.00
2022-11-07T07:58:53.289Z,47.67
2022-11-07T08:01:22.802Z,46.00
2022-11-07T08:04:01.359Z,48.00
2022-11-07T08:06:32.576Z,50.00
2022-11-07T08:09:02.468Z,51.00
2022-11-07T08:11:32.700Z,50.33
2022-11-07T08:14:02.300Z,50.67
2022-11-07T08:16:31.878Z,49.67
2022-11-07T08:19:01.459Z,49.67
2022-11-07T08:21:33.955Z,46.33
2022-11-07T08:24:03.848Z,48.00
2022-11-07T08:26:33.424Z,46.67
2022-11-07T08:29:02.353Z,48.67
2022-11-07T08:31:32.078Z,46.67
2022-11-07T08:34:04.025Z,48.33
2022-11-07T08:36:37.432Z,47.00
2022-11-07T08:39:06.956Z,48.67
2022-11-07T08:41:37.096Z,45.33
2022-11-07T08:44:08.625Z,46.67
2022-11-07T08:46:38.156Z,46.33
2022-11-07T08:49:07.759Z,44.33
2022-11-07T08:51:37.335Z,46.33
2022-11-07T08:54:06.982Z,47.00
2022-11-07T08:56:36.566Z,44.33
2022-11-07T08:59:06.700Z,45.00
2022-11-07T09:01:55.957Z,45.00
2022-11-07T09:04:27.141Z,48.67
2022-11-07T09:06:59.667Z,48.00
2022-11-07T09:09:29.284Z,47.67
2022-11-07T09:11:58.860Z,48.00
2022-11-07T09:14:28.073Z,46.00
2022-11-07T09:16:59.063Z,47.67
2022-11-07T09:19:28.855Z,44.67
2022-11-07T09:21:58.419Z,45.50
2022-11-07T09:24:28.147Z,42.67
2022-11-07T09:27:01.000Z,46.00
2022-11-07T09:29:30.985Z,42.00
2022-11-07T09:32:08.279Z,45.00
2022-11-07T09:34:54.477Z,43.33
2022-11-07T09:37:26.756Z,41.33
2022-11-07T09:39:57.096Z,39.67
2022-11-07T09:43:06.841Z,43.00
2022-11-07T09:46:20.074Z,42.00
2022-11-07T09:49:05.727Z,45.67
2022-11-07T09:51:40.902Z,43.67
2022-11-07T09:54:21.863Z,43.33
2022-11-07T09:56:52.616Z,47.00
2022-11-07T09:59:30.251Z,45.67
2022-11-07T10:02:00.830Z,45.00
2022-11-07T10:04:30.963Z,44.67
2022-11-07T10:07:14.757Z,45.00
2022-11-07T10:10:07.583Z,46.00
2022-11-07T10:13:29.002Z,48.67
2022-11-07T10:16:32.320Z,49.00
2022-11-07T10:19:20.384Z,54.67
2022-11-07T10:22:18.043Z,50.67
2022-11-07T10:25:24.879Z,42.33
2022-11-07T10:28:15.987Z,48.33
2022-11-07T10:31:00.105Z,46.33
2022-11-07T10:33:39.317Z,46.67
2022-11-07T10:36:32.660Z,47.33
2022-11-07T10:39:12.849Z,48.33
2022-11-07T10:42:21.260Z,41.33
2022-11-07T10:44:54.443Z,44.67
2022-11-07T10:47:27.957Z,50.33
2022-11-07T10:50:21.616Z,48.33
2022-11-07T10:53:03.494Z,50.00
2022-11-07T10:55:45.450Z,48.33
2022-11-07T10:58:24.030Z,48.25
2022-11-07T11:01:09.882Z,47.67
2022-11-07T11:03:49.790Z,47.67
2022-11-07T11:06:18.573Z,49.67
2022-11-07T11:08:52.159Z,50.67
2022-11-07T11:11:37.685Z,51.67
2022-11-07T11:14:16.259Z,47.00
2022-11-07T11:16:48.523Z,39.33
2022-11-07T11:19:24.453Z,51.67
2022-11-07T11:21:58.089Z,49.67
2022-11-07T11:24:37.824Z,47.00
2022-11-07T11:27:18.908Z,50.33
2022-11-07T11:30:20.132Z,46.33
2022-11-07T11:33:04.376Z,46.00
2022-11-07T11:35:55.963Z,47.75
2022-11-07T11:38:37.660Z,49.75
2022-11-07T11:41:48.112Z,46.00
2022-11-07T11:44:40.305Z,46.33
2022-11-07T11:47:35.996Z,49.67
2022-11-07T11:50:19.875Z,47.67
2022-11-07T11:52:50.905Z,49.00
2022-11-07T11:55:24.831Z,46.67
2022-11-07T11:58:29.372Z,47.00
2022-11-07T12:01:34.583Z,47.00
2022-11-07T12:04:25.159Z,45.00
2022-11-07T12:07:26.926Z,47.67
2022-11-07T12:10:27.129Z,44.33
2022-11-07T12:12:59.444Z,46.33
2022-11-07T12:15:44.364Z,46.67
2022-11-07T12:18:56.844Z,50.33
2022-11-07T12:21:48.652Z,48.00
2022-11-07T12:24:42.552Z,49.00
2022-11-07T12:27:46.555Z,45.67
2022-11-07T12:30:49.873Z,45.00
2022-11-07T12:33:27.925Z,47.00
2022-11-07T12:36:35.709Z,46.67
2022-11-07T12:39:50.979Z,44.33
2022-11-07T12:43:06.587Z,49.00
2022-11-07T12:45:57.757Z,43.67
2022-11-07T12:49:41.276Z,46.00
2022-11-07T12:52:49.559Z,54.67
2022-11-07T12:55:50.487Z,49.67
2022-11-07T12:58:30.243Z,51.33
2022-11-07T13:01:01.874Z,50.00
2022-11-07T13:04:04.206Z,51.33
2022-11-07T13:06:51.277Z,44.00
2022-11-07T13:09:57.951Z,47.00
2022-11-07T13:13:05.636Z,49.25
2022-11-07T13:16:00.931Z,48.00
2022-11-07T13:18:31.414Z,48.67
2022-11-07T13:21:07.695Z,54.67
2022-11-07T13:23:37.413Z,56.00
2022-11-07T13:26:32.569Z,128.33
2022-11-07T13:29:02.100Z,68.50
2022-11-07T13:31:34.662Z,97.00
2022-11-07T13:34:19.764Z,110.67
2022-11-07T13:36:51.737Z,53.50
2022-11-07T13:39:24.664Z,44.50
2022-11-07T13:41:55.048Z,47.33
2022-11-07T13:44:34.270Z,47.00
2022-11-07T13:47:12.374Z,43.00
2022-11-07T13:50:19.512Z,44.00
2022-11-07T13:54:16.619Z,44.00
2022-11-07T13:57:39.980Z,43.67
2022-11-07T14:00:32.280Z,46.00
2022-11-07T14:03:29.378Z,52.33
2022-11-07T14:06:19.341Z,48.25
2022-11-07T14:09:09.333Z,46.33
2022-11-07T14:11:59.056Z,44.67
2022-11-07T14:14:52.491Z,42.67
2022-11-07T14:17:42.230Z,43.00
2022-11-07T14:20:31.741Z,45.00
2022-11-07T14:23:27.378Z,50.25
2022-11-07T14:26:28.336Z,48.00
2022-11-07T14:29:24.599Z,40.33
2022-11-07T14:32:18.497Z,44.00
2022-11-07T14:35:09.650Z,17.00
2022-11-07T14:38:08.397Z,42.00
2022-11-07T14:41:01.981Z,42.00
2022-11-07T14:43:51.851Z,39.00
2022-11-07T14:46:42.913Z,40.00
2022-11-07T14:49:41.174Z,44.33
2022-11-07T14:52:43.634Z,46.00
2022-11-07T14:55:39.451Z,43.00
2022-11-07T14:58:30.626Z,31.00
2022-11-07T15:01:34.797Z,45.00
2022-11-07T15:04:45.314Z,45.00
2022-11-07T15:07:47.158Z,53.00
2022-11-07T15:10:51.408Z,67.00
2022-11-07T15:13:43.498Z,76.00
2022-11-07T15:16:39.395Z,76.25
2022-11-07T15:19:29.675Z,92.67
2022-11-07T15:22:41.317Z,86.25
2022-11-07T15:25:34.253Z,76.33
2022-11-07T15:28:20.320Z,85.25
2022-11-07T15:30:54.342Z,108.67
2022-11-07T15:33:23.882Z,89.00
2022-11-07T15:36:01.312Z,93.67
2022-11-07T15:38:30.286Z,82.00
2022-11-07T15:41:01.058Z,69.25
2022-11-07T15:43:39.569Z,60.25
2022-11-07T15:46:44.118Z,69.00
2022-11-07T15:49:14.096Z,125.67
2022-11-07T15:51:43.905Z,137.67
2022-11-07T15:54:13.935Z,135.67
2022-11-07T15:56:43.914Z,143.67
2022-11-07T15:59:22.930Z,152.50
2022-11-07T16:01:51.033Z,149.00
2022-11-07T16:04:20.809Z,108.33
2022-11-07T16:06:50.532Z,89.00
2022-11-07T16:09:24.798Z,129.00
2022-11-07T16:11:53.920Z,120.50
2022-11-07T16:17:18.374Z,123.00
2022-11-07T16:19:47.336Z,130.00
2022-11-07T16:22:19.165Z,125.29
2022-11-07T16:24:50.559Z,156.63
2022-11-07T16:27:21.083Z,225.25
2022-11-07T16:29:52.432Z,212.20
2022-11-07T16:32:20.327Z,203.00
2022-11-07T16:34:50.690Z,119.00
2022-11-07T16:37:19.050Z,126.50
2022-11-07T16:39:46.841Z,145.00
2022-11-07T16:42:16.394Z,132.00
2022-11-07T16:44:47.046Z,99.00
2022-11-07T16:47:19.855Z,138.33
2022-11-07T16:49:52.200Z,182.50
2022-11-07T16:52:25.367Z,147.00
2022-11-07T16:54:53.313Z,143.00
2022-11-07T16:57:26.735Z,137.00
2022-11-07T16:59:58.376Z,157.25
2022-11-07T17:02:27.648Z,143.50
2022-11-07T17:04:57.340Z,70.67
2022-11-07T17:07:27.801Z,96.50
2022-11-07T17:09:58.134Z,107.00
2022-11-07T17:12:28.657Z,99.50
2022-11-07T17:14:58.240Z,93.00
2022-11-07T17:17:29.013Z,86.25
2022-11-07T17:19:58.729Z,78.67
2022-11-07T17:22:28.441Z,85.33
2022-11-07T17:24:58.061Z,74.67
2022-11-07T17:27:33.664Z,73.00
2022-11-07T17:30:08.285Z,66.33
2022-11-07T17:32:38.352Z,84.33
2022-11-07T17:35:31.151Z,91.50
2022-11-07T17:37:58.294Z,92.00
2022-11-07T17:40:31.839Z,95.00
2022-11-07T17:43:00.680Z,88.00
2022-11-07T17:45:31.245Z,92.75
2022-11-07T17:47:59.071Z,95.00
2022-11-07T17:50:29.780Z,86.50
2022-11-07T17:52:59.363Z,77.33
2022-11-07T17:55:28.959Z,115.67
2022-11-07T17:57:58.224Z,109.50
2022-11-07T18:00:27.936Z,122.67
2022-11-07T18:02:57.680Z,108.00
2022-11-07T18:05:31.962Z,110.50
2022-11-07T18:08:02.857Z,104.33
2022-11-07T18:10:33.016Z,94.00
2022-11-07T18:13:02.729Z,84.67
2022-11-07T18:15:32.380Z,81.67
2022-11-07T18:18:05.556Z,86.00
2022-11-07T18:20:37.645Z,86.67
2022-11-07T18:23:07.302Z,92.33
2022-11-07T18:25:37.238Z,76.00
2022-11-07T18:28:07.750Z,106.50
2022-11-07T18:30:38.366Z,101.75
2022-11-07T18:33:06.231Z,122.50
2022-11-07T18:35:35.828Z,145.75
2022-11-07T18:38:03.796Z,140.00
2022-11-07T18:40:31.844Z,141.00
2022-11-07T18:42:59.758Z,152.00
2022-11-07T18:45:27.704Z,131.00
2022-11-07T18:47:59.160Z,133.43
2022-11-07T18:50:30.648Z,139.13
2022-11-07T18:53:00.317Z,136.00
2022-11-07T18:55:28.235Z,118.00
2022-11-07T18:57:56.153Z,124.00
2022-11-07T19:00:27.888Z,105.75
2022-11-07T19:02:59.806Z,111.75
2022-11-07T19:05:28.317Z,118.50
2022-11-07T19:07:56.126Z,124.50
2022-11-07T19:10:26.654Z,108.00
2022-11-07T19:12:58.559Z,118.25
2022-11-07T19:15:29.777Z,128.50
2022-11-07T19:17:57.664Z,130.00
2022-11-07T19:20:27.454Z,146.33
2022-11-07T19:22:59.362Z,142.38
2022-11-07T19:25:29.014Z,129.67
2022-11-07T19:27:56.959Z,140.50
2022-11-07T19:30:25.222Z,144.50
2022-11-07T19:32:54.904Z,146.25
2022-11-07T19:35:24.492Z,140.00
2022-11-07T19:37:55.086Z,139.25
2022-11-07T19:40:26.216Z,113.25
2022-11-07T19:42:56.565Z,134.00
2022-11-07T19:45:27.599Z,122.00
2022-11-07T19:47:57.710Z,119.67
2022-11-07T19:50:28.283Z,131.33
2022-11-07T19:52:59.760Z,131.57
2022-11-07T19:55:29.509Z,122.00
2022-11-07T19:57:57.956Z,132.00
2022-11-07T20:00:26.414Z,143.00
2022-11-07T20:02:58.081Z,134.57
2022-11-07T20:05:27.127Z,129.50
2022-11-07T20:08:02.192Z,113.50
2022-11-07T20:10:33.515Z,115.50
2022-11-07T20:13:04.042Z,111.75
2022-11-07T20:15:31.822Z,110.50
2022-11-07T20:18:02.371Z,125.50
2022-11-07T20:20:30.274Z,131.00
2022-11-07T20:23:00.475Z,142.25
2022-11-07T20:25:28.395Z,127.00
2022-11-07T20:27:58.156Z,125.75
2022-11-07T20:30:26.074Z,124.00
2022-11-07T20:32:57.649Z,127.57
2022-11-07T20:35:25.439Z,113.00
2022-11-07T20:37:56.772Z,118.00
2022-11-07T20:40:29.090Z,117.00
2022-11-07T20:43:01.889Z,128.50
2022-11-07T20:45:29.703Z,115.00
2022-11-07T20:48:00.147Z,112.33
2022-11-07T20:50:31.588Z,100.00
2022-11-07T20:53:01.270Z,92.33
2022-11-07T20:55:31.839Z,80.33
2022-11-07T20:58:03.703Z,84.00
2022-11-07T21:00:33.736Z,87.00
2022-11-07T21:03:03.605Z,87.33
2022-11-07T21:05:33.783Z,79.33
2022-11-07T21:08:03.520Z,78.67
2022-11-07T21:10:31.400Z,104.50
2022-11-07T21:13:01.895Z,108.25
2022-11-07T21:15:32.149Z,98.00
2022-11-07T21:18:03.897Z,97.33
2022-11-07T21:20:34.443Z,94.50
2022-11-07T21:23:05.017Z,94.00
2022-11-07T21:25:44.284Z,90.50
2022-11-07T21:28:17.771Z,97.50
2022-11-07T21:31:07.887Z,88.25
2022-11-07T21:33:38.973Z,90.67
2022-11-07T21:36:18.930Z,84.33
2022-11-07T21:38:49.565Z,103.25
2022-11-07T21:41:19.017Z,60.67
2022-11-07T21:43:49.705Z,57.67
2022-11-07T21:46:30.745Z,57.67
2022-11-07T21:49:02.191Z,51.67
2022-11-07T21:51:35.148Z,55.67
2022-11-07T21:54:06.853Z,55.00
2022-11-07T21:56:39.653Z,59.67
2022-11-07T21:59:11.678Z,65.00
2022-11-07T22:01:42.353Z,68.33
2022-11-07T22:04:13.510Z,75.33
2022-11-07T22:06:45.936Z,75.00
2022-11-07T22:09:21.060Z,73.33
2022-11-07T22:11:51.125Z,79.00
2022-11-07T22:14:23.142Z,81.00
2022-11-07T22:16:56.991Z,79.33
2022-11-07T22:19:27.066Z,92.33
2022-11-07T22:21:57.537Z,105.50
2022-11-07T22:24:28.176Z,105.00
2022-11-07T22:26:57.326Z,106.00
2022-11-07T22:29:27.826Z,96.75
2022-11-07T22:31:57.377Z,100.33
2022-11-07T22:34:26.215Z,103.00
2022-11-07T22:36:56.831Z,105.25
2022-11-07T22:39:24.673Z,92.50
2022-11-07T22:41:55.121Z,100.25
2022-11-07T22:44:24.757Z,94.33
2022-11-07T22:46:57.267Z,93.33
2022-11-07T22:49:27.011Z,87.67
2022-11-07T22:51:56.650Z,71.67
2022-11-07T22:54:26.233Z,63.00
2022-11-07T22:56:55.968Z,65.00
2022-11-07T22:59:25.600Z,69.00
2022-11-07T23:01:55.391Z,59.00
2022-11-07T23:04:30.022Z,53.33
2022-11-07T23:07:02.144Z,47.67
2022-11-07T23:09:31.680Z,45.00
2022-11-07T23:12:01.165Z,47.33
2022-11-07T23:14:31.363Z,55.00
2022-11-07T23:17:00.971Z,55.00
2022-11-07T23:19:30.605Z,55.00
2022-11-07T23:22:00.158Z,53.67
2022-11-07T23:24:30.399Z,54.67
2022-11-07T23:26:59.993Z,60.00
2022-11-07T23:29:29.544Z,44.00
2022-11-07T23:31:59.092Z,51.00
2022-11-07T23:34:29.353Z,50.33
2022-11-07T23:36:59.042Z,55.67
2022-11-07T23:39:28.679Z,51.00
2022-11-07T23:41:58.181Z,46.67
2022-11-07T23:44:27.686Z,49.33
2022-11-07T23:47:15.815Z,52.00
2022-11-07T23:50:03.900Z,48.00
2022-11-07T23:52:33.537Z,49.67
2022-11-07T23:55:21.623Z,51.00
2022-11-07T23:58:09.528Z,48.33
